createdAt,value
2018-07-22T00:01:37.877Z,15.68
2018-07-22T00:04:07.330Z,14.80
2018-07-22T00:06:36.492Z,13.95
2018-07-22T00:09:08.746Z,14.35
2018-07-22T00:11:38.261Z,14.83
2018-07-22T00:14:07.821Z,16.07
2018-07-22T00:16:36.543Z,15.05
2018-07-22T00:19:05.387Z,14.65
2018-07-22T00:21:34.776Z,15.10
2018-07-22T00:24:04.060Z,14.13
2018-07-22T00:26:32.542Z,15.15
2018-07-22T00:29:01.132Z,15.37
2018-07-22T00:31:30.484Z,13.75
2018-07-22T00:33:59.831Z,14.83
2018-07-22T00:36:28.548Z,14.33
2018-07-22T00:38:57.117Z,15.67
2018-07-22T00:41:27.180Z,15.20
2018-07-22T00:43:56.442Z,14.90
2018-07-22T00:46:26.282Z,15.18
2018-07-22T00:48:54.872Z,14.37
2018-07-22T00:51:24.078Z,15.28
2018-07-22T00:53:53.162Z,14.83
2018-07-22T00:56:21.859Z,15.25
2018-07-22T00:58:50.359Z,16.17
2018-07-22T01:01:19.516Z,15.73
2018-07-22T01:03:49.186Z,15.13
2018-07-22T01:06:17.794Z,16.10
2018-07-22T01:08:46.447Z,14.73
2018-07-22T01:11:15.873Z,15.33
2018-07-22T01:13:45.189Z,16.27
2018-07-22T01:16:14.466Z,14.83
2018-07-22T01:18:43.141Z,16.50
2018-07-22T01:21:11.858Z,15.80
2018-07-22T01:23:41.079Z,16.13
2018-07-22T01:26:10.230Z,17.27
2018-07-22T01:28:38.829Z,16.60
2018-07-22T01:31:07.565Z,17.40
2018-07-22T01:33:36.953Z,17.13
2018-07-22T01:36:06.236Z,16.07
2018-07-22T01:38:34.777Z,16.17
2018-07-22T01:41:03.443Z,15.90
2018-07-22T01:43:32.635Z,16.05
2018-07-22T01:46:02.010Z,18.10
2018-07-22T01:48:30.785Z,17.90
2018-07-22T01:50:59.613Z,17.87
2018-07-22T01:53:29.091Z,18.03
2018-07-22T01:55:58.437Z,18.15
2018-07-22T01:58:27.041Z,17.03
2018-07-22T02:00:55.676Z,17.93
2018-07-22T02:03:24.925Z,18.50
2018-07-22T02:05:54.090Z,22.63
2018-07-22T02:08:22.677Z,19.50
2018-07-22T02:10:51.327Z,18.53
2018-07-22T02:13:20.591Z,18.10
2018-07-22T02:15:49.751Z,18.60
2018-07-22T02:18:18.495Z,17.93
2018-07-22T02:20:47.116Z,21.63
2018-07-22T02:23:16.467Z,22.93
2018-07-22T02:25:45.781Z,22.73
2018-07-22T02:28:14.359Z,23.42
2018-07-22T02:30:42.946Z,20.75
2018-07-22T02:33:11.757Z,22.07
2018-07-22T02:35:41.381Z,17.77
2018-07-22T02:38:10.375Z,17.90
2018-07-22T02:40:39.169Z,18.70
2018-07-22T02:43:07.901Z,18.37
2018-07-22T02:45:37.052Z,19.63
2018-07-22T02:48:06.538Z,17.93
2018-07-22T02:50:35.054Z,17.53
2018-07-22T02:53:03.783Z,17.70
2018-07-22T02:55:33.073Z,18.20
2018-07-22T02:58:02.657Z,19.50
2018-07-22T03:00:31.273Z,18.50
2018-07-22T03:02:59.846Z,19.73
2018-07-22T03:05:29.244Z,20.00
2018-07-22T03:07:58.412Z,23.87
2018-07-22T03:10:26.943Z,23.40
2018-07-22T03:12:55.633Z,19.40
2018-07-22T03:15:24.758Z,18.93
2018-07-22T03:17:54.009Z,22.05
2018-07-22T03:20:22.627Z,21.27
2018-07-22T03:22:51.395Z,23.57
2018-07-22T03:25:20.877Z,26.60
2018-07-22T03:27:50.133Z,23.47
2018-07-22T03:30:18.699Z,25.17
2018-07-22T03:32:47.382Z,26.60
2018-07-22T03:35:16.798Z,24.70
2018-07-22T03:37:46.026Z,25.97
2018-07-22T03:40:14.771Z,27.43
2018-07-22T03:42:43.328Z,26.40
2018-07-22T03:45:11.804Z,28.03
2018-07-22T03:47:41.151Z,25.53
2018-07-22T03:50:09.959Z,27.27
2018-07-22T03:52:38.468Z,28.00
2018-07-22T03:55:07.156Z,28.13
2018-07-22T03:57:36.362Z,24.67
2018-07-22T04:00:06.107Z,25.60
2018-07-22T04:02:34.682Z,25.70
2018-07-22T04:05:03.385Z,26.53
2018-07-22T04:07:32.800Z,25.63
2018-07-22T04:10:02.190Z,26.03
2018-07-22T04:12:30.942Z,26.50
2018-07-22T04:14:59.605Z,26.37
2018-07-22T04:17:29.068Z,25.77
2018-07-22T04:19:58.282Z,24.97
2018-07-22T04:22:26.970Z,26.23
2018-07-22T04:24:55.782Z,24.83
2018-07-22T04:27:25.066Z,25.10
2018-07-22T04:29:54.318Z,25.53
2018-07-22T04:32:22.918Z,25.97
2018-07-22T04:34:51.340Z,26.73
2018-07-22T04:37:20.720Z,24.90
2018-07-22T04:39:50.080Z,24.63
2018-07-22T04:42:19.494Z,24.73
2018-07-22T04:44:48.123Z,26.27
2018-07-22T04:47:17.366Z,25.20
2018-07-22T04:49:46.596Z,23.83
2018-07-22T04:52:16.763Z,24.57
2018-07-22T04:54:45.524Z,22.63
2018-07-22T04:57:14.927Z,23.07
2018-07-22T04:59:44.311Z,23.10
2018-07-22T05:02:13.649Z,23.12
2018-07-22T05:04:42.325Z,22.58
2018-07-22T05:07:11.219Z,21.80
2018-07-22T05:09:40.484Z,23.75
2018-07-22T05:12:09.459Z,22.97
2018-07-22T05:14:38.266Z,22.98
2018-07-22T05:17:06.803Z,23.23
2018-07-22T05:19:36.336Z,23.42
2018-07-22T05:22:05.748Z,22.50
2018-07-22T05:24:34.612Z,21.77
2018-07-22T05:27:03.088Z,21.00
2018-07-22T05:29:32.526Z,21.65
2018-07-22T05:32:02.067Z,21.42
2018-07-22T05:34:30.672Z,20.32
2018-07-22T05:36:59.198Z,21.52
2018-07-22T05:39:28.614Z,19.87
2018-07-22T05:41:58.115Z,19.25
2018-07-22T05:44:26.712Z,20.08
2018-07-22T05:46:56.062Z,19.65
2018-07-22T05:49:26.363Z,19.82
2018-07-22T05:51:55.663Z,19.65
2018-07-22T05:54:24.448Z,19.65
2018-07-22T05:56:52.898Z,19.85
2018-07-22T05:59:22.295Z,19.40
2018-07-22T06:01:51.561Z,18.92
2018-07-22T06:04:20.239Z,19.32
2018-07-22T06:06:48.996Z,18.73
2018-07-22T06:09:21.238Z,19.25
2018-07-22T06:11:50.513Z,17.80
2018-07-22T06:14:19.199Z,18.82
2018-07-22T06:16:47.767Z,18.70
2018-07-22T06:19:17.220Z,17.67
2018-07-22T06:21:46.438Z,16.62
2018-07-22T06:24:15.008Z,15.83
2018-07-22T06:26:43.836Z,16.40
2018-07-22T06:29:12.401Z,16.07
2018-07-22T06:31:41.678Z,17.02
2018-07-22T06:34:10.959Z,15.03
2018-07-22T06:36:39.682Z,28.65
2018-07-22T06:39:13.122Z,18.23
2018-07-22T06:41:44.106Z,15.93
2018-07-22T06:44:13.588Z,16.15
2018-07-22T06:46:42.449Z,15.32
2018-07-22T06:49:11.120Z,14.75
2018-07-22T06:51:40.573Z,16.07
2018-07-22T06:54:09.640Z,15.95
2018-07-22T06:56:38.382Z,15.20
2018-07-22T06:59:07.066Z,15.35
2018-07-22T07:01:36.546Z,15.00
2018-07-22T07:04:05.946Z,15.35
2018-07-22T07:06:34.648Z,15.35
2018-07-22T07:09:05.560Z,15.05
2018-07-22T07:11:36.000Z,14.47
2018-07-22T07:14:05.861Z,14.68
2018-07-22T07:16:36.461Z,13.88
2018-07-22T07:19:06.237Z,13.28
2018-07-22T07:25:38.558Z,14.68
2018-07-22T07:28:07.948Z,14.70
2018-07-22T07:30:36.616Z,13.93
2018-07-22T07:33:08.264Z,15.08
2018-07-22T07:35:37.711Z,14.45
2018-07-22T07:38:07.611Z,13.72
2018-07-22T07:40:37.028Z,12.93
2018-07-22T07:43:06.071Z,13.98
2018-07-22T07:45:34.804Z,12.82
2018-07-22T07:48:03.194Z,13.53
2018-07-22T08:00:16.736Z,14.33
2018-07-22T08:02:45.488Z,12.85
2018-07-22T08:05:15.668Z,12.37
2018-07-22T08:07:44.648Z,13.40
2018-07-22T08:10:14.094Z,15.13
2018-07-22T08:12:44.300Z,14.45
2018-07-22T08:15:14.481Z,14.03
2018-07-22T08:17:43.519Z,14.83
2018-07-22T08:20:13.004Z,13.78
2018-07-22T08:22:42.134Z,15.15
2018-07-22T08:25:10.834Z,14.63
2018-07-22T08:27:40.400Z,13.88
2018-07-22T08:30:09.946Z,14.95
2018-07-22T08:32:38.770Z,15.68
2018-07-22T08:35:07.324Z,14.80
2018-07-22T08:37:37.328Z,15.43
2018-07-22T08:40:07.144Z,13.03
2018-07-22T08:42:35.897Z,14.25
2018-07-22T08:45:05.546Z,13.95
2018-07-22T08:47:33.575Z,14.85
2018-07-22T08:50:02.416Z,13.95
2018-07-22T08:52:31.060Z,13.38
2018-07-22T08:55:00.130Z,13.00
2018-07-22T08:57:29.516Z,13.00
2018-07-22T08:59:59.070Z,10.95
2018-07-22T09:02:27.902Z,12.70
2018-07-22T09:04:56.702Z,12.70
2018-07-22T09:07:26.250Z,12.82
2018-07-22T09:09:55.554Z,14.05
2018-07-22T09:12:23.588Z,13.72
2018-07-22T09:14:52.462Z,12.82
2018-07-22T09:17:21.978Z,12.95
2018-07-22T09:19:51.138Z,13.15
2018-07-22T09:22:20.407Z,13.65
2018-07-22T09:24:51.054Z,13.03
2018-07-22T09:27:19.796Z,12.23
2018-07-22T09:29:49.541Z,11.78
2018-07-22T09:32:18.530Z,11.80
2018-07-22T09:34:47.936Z,11.05
2018-07-22T09:37:16.642Z,11.73
2018-07-22T09:39:45.506Z,10.63
2018-07-22T09:42:14.352Z,12.18
2018-07-22T09:44:43.119Z,13.40
2018-07-22T09:47:13.375Z,14.63
2018-07-22T09:49:47.256Z,15.83
2018-07-22T09:52:17.240Z,12.03
2018-07-22T09:54:47.319Z,11.80
2018-07-22T09:57:16.803Z,11.10
2018-07-22T09:59:46.362Z,12.85
2018-07-22T10:02:15.295Z,11.95
2018-07-22T10:04:44.227Z,13.80
2018-07-22T10:07:13.629Z,12.23
2018-07-22T10:09:43.470Z,16.25
2018-07-22T10:12:11.494Z,12.90
2018-07-22T10:14:40.385Z,13.20
2018-07-22T10:17:09.618Z,14.33
2018-07-22T10:19:38.498Z,13.43
2018-07-22T10:22:07.850Z,13.55
2018-07-22T10:24:38.074Z,14.20
2018-07-22T10:27:06.964Z,12.45
2018-07-22T10:29:36.507Z,12.58
2018-07-22T10:32:06.282Z,11.15
2018-07-22T10:34:34.282Z,11.40
2018-07-22T10:37:03.033Z,12.05
2018-07-22T10:39:31.918Z,12.23
2018-07-22T10:42:01.347Z,12.75
2018-07-22T10:44:30.006Z,12.82
2018-07-22T10:46:58.060Z,13.80
2018-07-22T10:49:28.954Z,13.00
2018-07-22T10:51:58.355Z,13.43
2018-07-22T10:54:27.297Z,10.82
2018-07-22T10:56:56.109Z,13.32
2018-07-22T10:59:25.876Z,12.50
2018-07-22T11:01:55.174Z,12.55
2018-07-22T11:04:23.983Z,13.18
2018-07-22T11:06:52.909Z,12.98
2018-07-22T11:09:22.276Z,18.70
2018-07-22T11:11:51.032Z,11.33
2018-07-22T11:14:21.159Z,11.33
2018-07-22T11:16:49.973Z,12.63
2018-07-22T11:19:19.518Z,14.47
2018-07-22T11:21:48.886Z,12.98
2018-07-22T11:24:18.080Z,12.93
2018-07-22T11:26:48.434Z,11.63
2018-07-22T11:29:16.824Z,14.40
2018-07-22T11:31:45.586Z,10.15
2018-07-22T11:34:15.029Z,10.98
2018-07-22T11:36:43.825Z,11.48
2018-07-22T11:39:12.829Z,14.18
2018-07-22T11:41:43.155Z,11.90
2018-07-22T11:44:11.188Z,11.73
2018-07-22T11:46:40.395Z,11.97
2018-07-22T11:49:09.236Z,10.75
2018-07-22T11:51:39.339Z,10.48
2018-07-22T11:54:08.289Z,12.37
2018-07-22T11:56:36.281Z,12.60
2018-07-22T11:59:04.985Z,13.22
2018-07-22T12:01:36.055Z,12.65
2018-07-22T12:04:05.140Z,12.55
2018-07-22T12:06:33.922Z,12.15
2018-07-22T12:09:04.282Z,11.53
2018-07-22T12:11:34.162Z,14.18
2018-07-22T12:14:03.801Z,12.53
2018-07-22T12:16:32.461Z,12.03
2018-07-22T12:19:02.602Z,11.65
2018-07-22T12:21:32.576Z,11.45
2018-07-22T12:24:02.108Z,11.93
2018-07-22T12:26:31.947Z,11.53
2018-07-22T12:29:00.876Z,10.35
2018-07-22T12:31:29.727Z,12.43
2018-07-22T12:33:59.389Z,11.30
2018-07-22T12:36:28.205Z,11.40
2018-07-22T12:38:57.247Z,11.53
2018-07-22T12:41:26.912Z,11.65
2018-07-22T12:43:56.232Z,11.30
2018-07-22T12:46:25.464Z,11.57
2018-07-22T12:49:01.917Z,12.65
2018-07-22T12:51:36.100Z,10.65
2018-07-22T12:54:11.031Z,10.13
2018-07-22T12:56:47.639Z,11.15
2018-07-22T12:59:23.504Z,10.70
2018-07-22T13:01:59.209Z,10.10
2018-07-22T13:04:36.460Z,11.53
2018-07-22T13:07:11.993Z,10.30
2018-07-22T13:09:47.084Z,11.03
2018-07-22T13:12:22.076Z,9.93
2018-07-22T13:17:34.303Z,11.83
2018-07-22T13:20:04.014Z,11.15
2018-07-22T13:22:31.995Z,11.78
2018-07-22T13:25:01.342Z,10.72
2018-07-22T13:27:30.142Z,11.40
2018-07-22T13:29:59.541Z,11.18
2018-07-22T13:32:28.534Z,10.43
2018-07-22T13:34:57.395Z,11.05
2018-07-22T13:37:26.716Z,10.15
2018-07-22T13:39:55.407Z,10.90
2018-07-22T13:42:24.279Z,11.63
2018-07-22T13:44:53.112Z,10.58
2018-07-22T13:47:23.946Z,10.60
2018-07-22T13:49:52.873Z,10.63
2018-07-22T13:52:21.751Z,10.68
2018-07-22T13:54:51.251Z,10.70
2018-07-22T13:57:22.010Z,11.12
2018-07-22T13:59:50.974Z,10.25
2018-07-22T14:02:19.397Z,10.80
2018-07-22T14:04:49.050Z,10.25
2018-07-22T14:07:18.050Z,10.38
2018-07-22T14:09:49.048Z,10.98
2018-07-22T14:12:17.034Z,10.65
2018-07-22T14:14:47.680Z,10.28
2018-07-22T14:17:16.391Z,10.30
2018-07-22T14:19:45.220Z,10.75
2018-07-22T14:22:20.745Z,10.30
2018-07-22T14:24:56.454Z,10.70
2018-07-22T14:27:31.850Z,12.68
2018-07-22T14:30:06.672Z,9.70
2018-07-22T14:32:42.578Z,9.90
2018-07-22T14:35:16.649Z,9.80
2018-07-22T14:37:45.661Z,9.93
2018-07-22T14:40:15.554Z,10.58
2018-07-22T14:42:46.523Z,9.98
2018-07-22T14:45:15.225Z,10.00
2018-07-22T14:47:44.376Z,10.25
2018-07-22T14:50:14.477Z,10.50
2018-07-22T14:52:43.337Z,11.00
2018-07-22T14:55:12.108Z,11.48
2018-07-22T14:57:40.825Z,12.25
2018-07-22T15:00:09.543Z,11.38
2018-07-22T15:02:38.267Z,10.63
2018-07-22T15:05:06.553Z,10.88
2018-07-22T15:07:39.319Z,11.15
2018-07-22T15:10:09.131Z,10.85
2018-07-22T15:12:39.202Z,11.00
2018-07-22T15:15:12.531Z,11.30
2018-07-22T15:17:42.443Z,10.10
2018-07-22T15:20:12.065Z,12.53
2018-07-22T15:22:40.973Z,10.93
2018-07-22T15:25:11.127Z,11.00
2018-07-22T15:27:39.987Z,10.40
2018-07-22T15:30:08.902Z,10.65
2018-07-22T15:32:37.782Z,10.75
2018-07-22T15:35:06.895Z,11.22
2018-07-22T15:37:35.773Z,10.30
2018-07-22T15:40:05.881Z,11.53
2018-07-22T15:42:34.607Z,10.40
2018-07-22T15:45:04.357Z,11.65
2018-07-22T15:47:33.831Z,10.58
2018-07-22T15:50:04.118Z,10.50
2018-07-22T15:52:32.976Z,10.40
2018-07-22T15:55:04.841Z,10.82
2018-07-22T15:57:36.052Z,10.80
2018-07-22T16:00:07.429Z,10.30
2018-07-22T16:02:36.199Z,10.40
2018-07-22T16:05:05.181Z,10.80
2018-07-22T16:07:35.209Z,11.12
2018-07-22T16:10:04.915Z,10.38
2018-07-22T16:12:33.851Z,11.18
2018-07-22T16:15:02.827Z,12.47
2018-07-22T16:17:32.364Z,12.33
2018-07-22T16:20:01.822Z,11.85
2018-07-22T16:22:30.930Z,12.90
2018-07-22T16:24:59.628Z,10.40
2018-07-22T16:27:29.117Z,13.98
2018-07-22T16:29:58.755Z,12.88
2018-07-22T16:32:27.587Z,11.33
2018-07-22T16:34:56.320Z,11.22
2018-07-22T16:37:25.650Z,11.03
2018-07-22T16:39:55.120Z,10.65
2018-07-22T16:42:24.195Z,10.78
2018-07-22T16:44:53.071Z,9.55
2018-07-22T16:47:22.451Z,10.25
2018-07-22T16:49:52.020Z,11.48
2018-07-22T16:52:21.097Z,15.08
2018-07-22T16:54:50.072Z,11.03
2018-07-22T16:57:19.709Z,10.32
2018-07-22T16:59:49.097Z,10.25
2018-07-22T17:02:17.989Z,10.88
2018-07-22T17:04:48.137Z,10.00
2018-07-22T17:07:17.620Z,10.25
2018-07-22T17:09:48.095Z,10.98
2018-07-22T17:12:17.004Z,9.98
2018-07-22T17:14:45.825Z,10.58
2018-07-22T17:17:15.271Z,10.53
2018-07-22T17:19:44.687Z,10.45
2018-07-22T17:22:14.461Z,12.60
2018-07-22T17:24:45.677Z,14.15
2018-07-22T17:27:15.325Z,9.85
2018-07-22T17:29:44.982Z,9.60
2018-07-22T17:32:14.447Z,10.03
2018-07-22T17:34:43.268Z,10.43
2018-07-22T17:37:13.455Z,10.65
2018-07-22T17:39:43.776Z,11.70
2018-07-22T17:42:13.784Z,10.90
2018-07-22T17:44:42.588Z,11.63
2018-07-22T17:47:11.251Z,9.90
2018-07-22T17:49:40.757Z,9.15
2018-07-22T17:52:09.752Z,11.20
2018-07-22T17:54:38.605Z,11.45
2018-07-22T17:57:19.282Z,10.00
2018-07-22T17:59:49.784Z,10.23
2018-07-22T18:02:18.716Z,11.43
2018-07-22T18:04:47.539Z,10.88
2018-07-22T18:07:18.597Z,9.58
2018-07-22T18:09:48.266Z,13.78
2018-07-22T18:12:17.198Z,8.90
2018-07-22T18:14:47.526Z,9.03
2018-07-22T18:17:17.023Z,9.20
2018-07-22T18:19:46.727Z,8.80
2018-07-22T18:22:15.615Z,9.95
2018-07-22T18:24:44.959Z,12.25
2018-07-22T18:27:12.989Z,10.18
2018-07-22T18:29:42.616Z,9.23
2018-07-22T18:32:11.561Z,10.38
2018-07-22T18:34:40.408Z,11.50
2018-07-22T18:37:09.388Z,13.90
2018-07-22T18:39:39.028Z,13.00
2018-07-22T18:42:08.533Z,8.53
2018-07-22T18:44:37.381Z,12.00
2018-07-22T18:47:06.727Z,12.35
2018-07-22T18:49:36.495Z,9.63
2018-07-22T18:52:06.488Z,13.00
2018-07-22T18:54:35.387Z,13.35
2018-07-22T18:57:04.339Z,13.50
2018-07-22T18:59:34.294Z,12.70
2018-07-22T19:02:04.541Z,14.55
2018-07-22T19:04:33.401Z,12.93
2018-07-22T19:07:04.428Z,14.83
2018-07-22T19:09:33.256Z,16.40
2018-07-22T19:12:04.240Z,9.43
2018-07-22T19:14:34.442Z,10.65
2018-07-22T19:17:04.481Z,9.35
2018-07-22T19:19:34.005Z,10.35
2018-07-22T19:22:04.588Z,12.53
2018-07-22T19:24:33.423Z,8.83
2018-07-22T19:27:02.314Z,12.95
2018-07-22T19:29:32.013Z,9.63
2018-07-22T19:32:01.524Z,14.95
2018-07-22T19:34:31.090Z,11.50
2018-07-22T19:36:59.834Z,9.23
2018-07-22T19:39:29.263Z,9.65
2018-07-22T19:41:58.390Z,9.10
2018-07-22T19:44:27.160Z,9.48
2018-07-22T19:46:57.091Z,8.98
2018-07-22T19:49:26.688Z,10.65
2018-07-22T19:51:56.750Z,9.55
2018-07-22T19:54:25.484Z,9.80
2018-07-22T19:56:54.178Z,10.03
2018-07-22T19:59:25.251Z,8.68
2018-07-22T20:01:54.797Z,9.78
2018-07-22T20:04:24.592Z,9.15
2018-07-22T20:06:53.521Z,9.48
2018-07-22T20:09:24.048Z,10.28
2018-07-22T20:11:54.308Z,10.90
2018-07-22T20:14:23.080Z,14.90
2018-07-22T20:16:51.770Z,12.45
2018-07-22T20:19:21.457Z,11.83
2018-07-22T20:21:50.864Z,12.58
2018-07-22T20:24:19.856Z,12.63
2018-07-22T20:26:48.684Z,13.18
2018-07-22T20:29:18.107Z,12.63
2018-07-22T20:31:47.697Z,12.65
2018-07-22T20:34:17.544Z,11.85
2018-07-22T20:36:46.898Z,12.28
2018-07-22T20:39:17.482Z,12.33
2018-07-22T20:41:48.126Z,12.55
2018-07-22T20:44:17.370Z,11.80
2018-07-22T20:46:46.393Z,12.70
2018-07-22T20:49:15.788Z,11.73
2018-07-22T20:51:45.281Z,12.30
2018-07-22T20:54:14.730Z,11.73
2018-07-22T20:56:44.110Z,13.38
2018-07-22T20:59:13.048Z,13.15
2018-07-22T21:01:42.819Z,13.45
2018-07-22T21:04:12.090Z,14.80
2018-07-22T21:06:40.850Z,14.13
2018-07-22T21:09:09.796Z,11.53
2018-07-22T21:12:52.408Z,13.55
2018-07-22T21:15:22.103Z,14.18
2018-07-22T21:17:52.109Z,12.90
2018-07-22T21:20:21.629Z,12.28
2018-07-22T21:22:51.086Z,12.43
2018-07-22T21:25:20.680Z,12.58
2018-07-22T21:27:50.910Z,13.00
2018-07-22T21:30:20.409Z,12.60
2018-07-22T21:32:49.087Z,12.78
2018-07-22T21:35:18.348Z,13.72
2018-07-22T21:37:48.074Z,14.30
2018-07-22T21:40:17.015Z,13.85
2018-07-22T21:42:48.519Z,15.78
2018-07-22T21:45:17.955Z,13.98
2018-07-22T21:47:48.393Z,12.35
2018-07-22T21:50:17.276Z,12.85
2018-07-22T21:52:46.247Z,14.23
2018-07-22T21:55:15.757Z,13.48
2018-07-22T21:57:45.103Z,13.25
2018-07-22T22:00:23.099Z,13.28
2018-07-22T22:02:51.275Z,12.15
2018-07-22T22:05:20.542Z,13.30
2018-07-22T22:07:50.017Z,12.23
2018-07-22T22:10:18.621Z,12.80
2018-07-22T22:12:48.252Z,11.97
2018-07-22T22:15:22.710Z,12.43
2018-07-22T22:17:52.819Z,13.20
2018-07-22T22:20:21.857Z,11.90
2018-07-22T22:22:51.472Z,13.08
2018-07-22T22:25:20.880Z,12.45
2018-07-22T22:27:50.264Z,12.28
2018-07-22T22:30:18.904Z,12.03
2018-07-22T22:32:47.873Z,12.13
2018-07-22T22:35:17.280Z,12.78
2018-07-22T22:37:46.768Z,12.53
2018-07-22T22:40:15.881Z,12.25
2018-07-22T22:42:45.492Z,12.43
2018-07-22T22:45:15.276Z,12.40
2018-07-22T22:47:44.822Z,11.80
2018-07-22T22:50:13.786Z,11.97
2018-07-22T22:52:42.572Z,11.18
2018-07-22T22:55:11.111Z,11.35
2018-07-22T22:57:47.008Z,11.53
2018-07-22T23:00:15.975Z,12.07
2018-07-22T23:02:44.572Z,11.43
2018-07-22T23:05:13.872Z,11.35
2018-07-22T23:07:43.219Z,12.33
2018-07-22T23:10:13.589Z,12.18
2018-07-22T23:12:42.273Z,11.70
2018-07-22T23:15:11.090Z,12.63
2018-07-22T23:17:40.558Z,12.10
2018-07-22T23:20:09.598Z,12.98
2018-07-22T23:22:38.482Z,11.38
2018-07-22T23:25:07.779Z,12.50
2018-07-22T23:27:37.726Z,12.13
2018-07-22T23:30:07.105Z,12.50
2018-07-22T23:32:35.816Z,13.30
2018-07-22T23:35:04.567Z,12.03
2018-07-22T23:37:34.106Z,12.68
2018-07-22T23:40:04.284Z,11.88
2018-07-22T23:42:39.908Z,12.37
2018-07-22T23:45:08.495Z,12.45
2018-07-22T23:47:37.930Z,11.95
2018-07-22T23:50:07.495Z,12.57
2018-07-22T23:52:37.776Z,12.93
2018-07-22T23:55:06.547Z,13.22
2018-07-22T23:57:36.280Z,13.32
